sensor_id;sensor_type;location;lat;lon;timestamp;temperature;humidity
3690;DHT22;1861;50.240;8.596;2023-03-15T00:02:15;7.70;99.90
3690;DHT22;1861;50.240;8.596;2023-03-15T00:04:43;7.70;99.90
3690;DHT22;1861;50.240;8.596;2023-03-15T00:07:12;7.60;99.90
3690;DHT22;1861;50.240;8.596;2023-03-15T00:09:40;7.60;99.90
3690;DHT22;1861;50.240;8.596;2023-03-15T00:12:08;7.60;99.90
3690;DHT22;1861;50.240;8.596;2023-03-15T00:14:38;7.60;99.90
3690;DHT22;1861;50.240;8.596;2023-03-15T00:17:06;7.50;99.90
3690;DHT22;1861;50.240;8.596;2023-03-15T00:19:34;7.50;99.90
3690;DHT22;1861;50.240;8.596;2023-03-15T00:22:02;7.50;99.90
3690;DHT22;1861;50.240;8.596;2023-03-15T00:24:31;7.60;99.90
3690;DHT22;1861;50.240;8.596;2023-03-15T00:26:59;7.50;99.90
3690;DHT22;1861;50.240;8.596;2023-03-15T00:29:27;7.50;99.90
3690;DHT22;1861;50.240;8.596;2023-03-15T00:31:55;7.50;99.90
3690;DHT22;1861;50.240;8.596;2023-03-15T00:34:23;7.40;99.90
3690;DHT22;1861;50.240;8.596;2023-03-15T00:36:52;7.30;99.90
3690;DHT22;1861;50.240;8.596;2023-03-15T00:39:20;7.30;99.90
3690;DHT22;1861;50.240;8.596;2023-03-15T00:41:52;7.30;99.90
3690;DHT22;1861;50.240;8.596;2023-03-15T00:44:22;7.20;99.90
3690;DHT22;1861;50.240;8.596;2023-03-15T00:46:51;7.20;99.90
3690;DHT22;1861;50.240;8.596;2023-03-15T00:49:19;7.20;99.90
3690;DHT22;1861;50.240;8.596;2023-03-15T00:51:47;7.10;99.90
3690;DHT22;1861;50.240;8.596;2023-03-15T00:54:15;7.10;99.90
3690;DHT22;1861;50.240;8.596;2023-03-15T00:56:43;7.20;99.90
3690;DHT22;1861;50.240;8.596;2023-03-15T00:59:12;7.20;99.90
3690;DHT22;1861;50.240;8.596;2023-03-15T01:01:41;7.10;99.90
3690;DHT22;1861;50.240;8.596;2023-03-15T01:04:11;7.10;99.90
3690;DHT22;1861;50.240;8.596;2023-03-15T01:06:39;7.00;99.90
3690;DHT22;1861;50.240;8.596;2023-03-15T01:09:08;7.00;99.90
3690;DHT22;1861;50.240;8.596;2023-03-15T01:11:37;7.00;99.90
3690;DHT22;1861;50.240;8.596;2023-03-15T01:14:05;6.80;99.90
3690;DHT22;1861;50.240;8.596;2023-03-15T01:16:37;6.80;99.90
3690;DHT22;1861;50.240;8.596;2023-03-15T01:19:08;6.70;99.90
3690;DHT22;1861;50.240;8.596;2023-03-15T01:21:36;6.80;99.90
3690;DHT22;1861;50.240;8.596;2023-03-15T01:24:05;6.90;99.90
3690;DHT22;1861;50.240;8.596;2023-03-15T01:26:33;6.90;99.90
3690;DHT22;1861;50.240;8.596;2023-03-15T01:29:02;6.80;99.90
3690;DHT22;1861;50.240;8.596;2023-03-15T01:31:30;6.80;99.90
3690;DHT22;1861;50.240;8.596;2023-03-15T01:34:00;6.80;99.90
3690;DHT22;1861;50.240;8.596;2023-03-15T01:36:31;6.80;99.90
3690;DHT22;1861;50.240;8.596;2023-03-15T01:38:59;6.70;99.90
3690;DHT22;1861;50.240;8.596;2023-03-15T01:41:39;6.80;99.90
3690;DHT22;1861;50.240;8.596;2023-03-15T01:44:11;6.70;99.90
3690;DHT22;1861;50.240;8.596;2023-03-15T01:46:39;6.80;99.90
3690;DHT22;1861;50.240;8.596;2023-03-15T01:49:16;6.70;99.90
3690;DHT22;1861;50.240;8.596;2023-03-15T01:51:50;6.80;99.90
3690;DHT22;1861;50.240;8.596;2023-03-15T01:54:26;6.80;99.90
3690;DHT22;1861;50.240;8.596;2023-03-15T01:56:59;6.70;99.90
3690;DHT22;1861;50.240;8.596;2023-03-15T01:59:30;6.80;99.90
3690;DHT22;1861;50.240;8.596;2023-03-15T02:02:00;6.70;99.90
3690;DHT22;1861;50.240;8.596;2023-03-15T02:04:32;6.70;99.90
3690;DHT22;1861;50.240;8.596;2023-03-15T02:07:03;6.80;99.90
3690;DHT22;1861;50.240;8.596;2023-03-15T02:09:39;6.70;99.90
3690;DHT22;1861;50.240;8.596;2023-03-15T02:12:10;6.70;99.90
3690;DHT22;1861;50.240;8.596;2023-03-15T02:14:38;6.70;99.90
3690;DHT22;1861;50.240;8.596;2023-03-15T02:17:11;6.60;99.90
3690;DHT22;1861;50.240;8.596;2023-03-15T02:19:48;6.60;99.90
3690;DHT22;1861;50.240;8.596;2023-03-15T02:22:28;6.60;99.90
3690;DHT22;1861;50.240;8.596;2023-03-15T02:25:05;6.60;99.90
3690;DHT22;1861;50.240;8.596;2023-03-15T02:27:36;6.60;99.90
3690;DHT22;1861;50.240;8.596;2023-03-15T02:30:07;6.70;99.90
3690;DHT22;1861;50.240;8.596;2023-03-15T02:32:36;6.70;99.90
3690;DHT22;1861;50.240;8.596;2023-03-15T02:35:05;6.70;99.90
3690;DHT22;1861;50.240;8.596;2023-03-15T02:37:33;6.60;99.90
3690;DHT22;1861;50.240;8.596;2023-03-15T02:40:01;6.60;99.90
3690;DHT22;1861;50.240;8.596;2023-03-15T02:42:31;6.60;99.90
3690;DHT22;1861;50.240;8.596;2023-03-15T02:45:01;6.60;99.90
3690;DHT22;1861;50.240;8.596;2023-03-15T02:47:32;6.60;99.90
3690;DHT22;1861;50.240;8.596;2023-03-15T02:50:01;6.60;99.90
3690;DHT22;1861;50.240;8.596;2023-03-15T02:52:29;6.60;99.90
3690;DHT22;1861;50.240;8.596;2023-03-15T02:54:57;6.60;99.90
3690;DHT22;1861;50.240;8.596;2023-03-15T02:57:25;6.60;99.90
3690;DHT22;1861;50.240;8.596;2023-03-15T02:59:54;6.50;99.90
3690;DHT22;1861;50.240;8.596;2023-03-15T03:02:24;6.50;99.90
3690;DHT22;1861;50.240;8.596;2023-03-15T03:04:52;6.50;99.90
3690;DHT22;1861;50.240;8.596;2023-03-15T03:07:20;6.60;99.90
3690;DHT22;1861;50.240;8.596;2023-03-15T03:09:55;6.60;99.90
3690;DHT22;1861;50.240;8.596;2023-03-15T03:12:24;6.70;99.90
3690;DHT22;1861;50.240;8.596;2023-03-15T03:14:53;6.70;99.90
3690;DHT22;1861;50.240;8.596;2023-03-15T03:17:24;6.60;99.90
3690;DHT22;1861;50.240;8.596;2023-03-15T03:19:53;6.60;99.90
3690;DHT22;1861;50.240;8.596;2023-03-15T03:22:28;6.60;99.90
3690;DHT22;1861;50.240;8.596;2023-03-15T03:24:56;6.50;99.90
3690;DHT22;1861;50.240;8.596;2023-03-15T03:27:24;6.50;99.90
3690;DHT22;1861;50.240;8.596;2023-03-15T03:29:52;6.50;99.90
3690;DHT22;1861;50.240;8.596;2023-03-15T03:32:20;6.60;99.90
3690;DHT22;1861;50.240;8.596;2023-03-15T03:34:52;6.50;99.90
3690;DHT22;1861;50.240;8.596;2023-03-15T03:37:22;6.40;99.90
3690;DHT22;1861;50.240;8.596;2023-03-15T03:40:04;6.40;99.90
3690;DHT22;1861;50.240;8.596;2023-03-15T03:42:35;6.30;99.90
3690;DHT22;1861;50.240;8.596;2023-03-15T03:45:06;6.30;99.90
3690;DHT22;1861;50.240;8.596;2023-03-15T03:47:39;6.30;99.90
3690;DHT22;1861;50.240;8.596;2023-03-15T03:50:10;6.30;99.90
3690;DHT22;1861;50.240;8.596;2023-03-15T03:52:39;6.30;99.90
3690;DHT22;1861;50.240;8.596;2023-03-15T03:55:13;6.20;99.90
3690;DHT22;1861;50.240;8.596;2023-03-15T03:57:42;6.30;99.90
3690;DHT22;1861;50.240;8.596;2023-03-15T04:00:18;6.30;99.90
3690;DHT22;1861;50.240;8.596;2023-03-15T04:02:47;6.30;99.90
3690;DHT22;1861;50.240;8.596;2023-03-15T04:05:17;6.20;99.90
3690;DHT22;1861;50.240;8.596;2023-03-15T04:07:45;6.10;99.90
3690;DHT22;1861;50.240;8.596;2023-03-15T04:10:15;6.20;99.90
3690;DHT22;1861;50.240;8.596;2023-03-15T04:12:47;6.30;99.90
3690;DHT22;1861;50.240;8.596;2023-03-15T04:15:15;6.20;99.90
3690;DHT22;1861;50.240;8.596;2023-03-15T04:17:43;6.30;99.90
3690;DHT22;1861;50.240;8.596;2023-03-15T04:20:11;6.40;99.90
3690;DHT22;1861;50.240;8.596;2023-03-15T04:22:45;6.30;99.90
3690;DHT22;1861;50.240;8.596;2023-03-15T04:25:48;6.30;99.90
3690;DHT22;1861;50.240;8.596;2023-03-15T04:28:36;6.30;99.90
3690;DHT22;1861;50.240;8.596;2023-03-15T04:31:32;6.30;99.90
3690;DHT22;1861;50.240;8.596;2023-03-15T04:34:27;6.40;99.90
3690;DHT22;1861;50.240;8.596;2023-03-15T04:37:05;6.30;99.90
3690;DHT22;1861;50.240;8.596;2023-03-15T04:39:47;6.30;99.90
3690;DHT22;1861;50.240;8.596;2023-03-15T04:42:44;6.20;99.90
3690;DHT22;1861;50.240;8.596;2023-03-15T04:45:39;6.20;99.90
3690;DHT22;1861;50.240;8.596;2023-03-15T04:48:37;6.20;99.90
3690;DHT22;1861;50.240;8.596;2023-03-15T04:51:27;6.20;99.90
3690;DHT22;1861;50.240;8.596;2023-03-15T04:54:25;6.30;99.90
3690;DHT22;1861;50.240;8.596;2023-03-15T04:57:18;6.30;99.90
3690;DHT22;1861;50.240;8.596;2023-03-15T05:00:10;6.20;99.90
3690;DHT22;1861;50.240;8.596;2023-03-15T05:02:58;6.30;99.90
3690;DHT22;1861;50.240;8.596;2023-03-15T05:05:40;6.20;99.90
3690;DHT22;1861;50.240;8.596;2023-03-15T05:08:18;6.20;99.90
3690;DHT22;1861;50.240;8.596;2023-03-15T05:11:04;6.10;99.90
3690;DHT22;1861;50.240;8.596;2023-03-15T05:14:06;6.10;99.90
3690;DHT22;1861;50.240;8.596;2023-03-15T05:16:44;6.20;99.90
3690;DHT22;1861;50.240;8.596;2023-03-15T05:19:31;6.30;99.90
3690;DHT22;1861;50.240;8.596;2023-03-15T05:22:25;6.30;99.90
3690;DHT22;1861;50.240;8.596;2023-03-15T05:25:13;6.30;99.90
3690;DHT22;1861;50.240;8.596;2023-03-15T05:28:16;6.30;99.90
3690;DHT22;1861;50.240;8.596;2023-03-15T05:30:57;6.20;99.90
3690;DHT22;1861;50.240;8.596;2023-03-15T05:33:46;6.30;99.90
3690;DHT22;1861;50.240;8.596;2023-03-15T05:36:32;6.30;99.90
3690;DHT22;1861;50.240;8.596;2023-03-15T05:39:19;6.30;99.90
3690;DHT22;1861;50.240;8.596;2023-03-15T05:42:07;6.20;99.90
3690;DHT22;1861;50.240;8.596;2023-03-15T05:44:35;6.20;99.90
3690;DHT22;1861;50.240;8.596;2023-03-15T05:47:25;6.10;99.90
3690;DHT22;1861;50.240;8.596;2023-03-15T05:50:19;6.00;99.90
3690;DHT22;1861;50.240;8.596;2023-03-15T05:52:55;6.00;99.90
3690;DHT22;1861;50.240;8.596;2023-03-15T05:55:42;6.10;99.90
3690;DHT22;1861;50.240;8.596;2023-03-15T05:58:29;6.10;99.90
3690;DHT22;1861;50.240;8.596;2023-03-15T06:01:22;6.10;99.90
3690;DHT22;1861;50.240;8.596;2023-03-15T06:04:05;6.10;99.90
3690;DHT22;1861;50.240;8.596;2023-03-15T06:06:34;6.10;99.90
3690;DHT22;1861;50.240;8.596;2023-03-15T06:09:04;6.10;99.90
3690;DHT22;1861;50.240;8.596;2023-03-15T06:11:33;6.00;99.90
3690;DHT22;1861;50.240;8.596;2023-03-15T06:14:02;5.90;99.90
3690;DHT22;1861;50.240;8.596;2023-03-15T06:16:36;6.00;99.90
3690;DHT22;1861;50.240;8.596;2023-03-15T06:19:05;6.00;99.90
3690;DHT22;1861;50.240;8.596;2023-03-15T06:21:33;6.00;99.90
3690;DHT22;1861;50.240;8.596;2023-03-15T06:24:07;5.90;99.90
3690;DHT22;1861;50.240;8.596;2023-03-15T06:26:36;6.00;99.90
3690;DHT22;1861;50.240;8.596;2023-03-15T06:29:05;6.00;99.90
3690;DHT22;1861;50.240;8.596;2023-03-15T06:31:33;5.90;99.90
3690;DHT22;1861;50.240;8.596;2023-03-15T06:34:09;6.00;99.90
3690;DHT22;1861;50.240;8.596;2023-03-15T06:36:37;6.00;99.90
3690;DHT22;1861;50.240;8.596;2023-03-15T06:39:05;6.00;99.90
3690;DHT22;1861;50.240;8.596;2023-03-15T06:41:33;6.10;99.90
3690;DHT22;1861;50.240;8.596;2023-03-15T06:44:10;6.00;99.90
3690;DHT22;1861;50.240;8.596;2023-03-15T06:46:39;6.10;99.90
3690;DHT22;1861;50.240;8.596;2023-03-15T06:49:09;5.90;99.90
3690;DHT22;1861;50.240;8.596;2023-03-15T06:51:37;5.90;99.90
3690;DHT22;1861;50.240;8.596;2023-03-15T06:54:05;6.00;99.90
3690;DHT22;1861;50.240;8.596;2023-03-15T06:56:34;6.00;99.90
3690;DHT22;1861;50.240;8.596;2023-03-15T06:59:03;5.90;99.90
3690;DHT22;1861;50.240;8.596;2023-03-15T07:01:31;5.90;99.90
3690;DHT22;1861;50.240;8.596;2023-03-15T07:03:59;6.00;99.90
3690;DHT22;1861;50.240;8.596;2023-03-15T07:06:29;6.00;99.90
3690;DHT22;1861;50.240;8.596;2023-03-15T07:08:57;6.10;99.90
3690;DHT22;1861;50.240;8.596;2023-03-15T07:11:25;6.00;99.90
3690;DHT22;1861;50.240;8.596;2023-03-15T07:13:53;6.00;99.90
3690;DHT22;1861;50.240;8.596;2023-03-15T07:16:21;6.00;99.90
3690;DHT22;1861;50.240;8.596;2023-03-15T07:18:49;6.00;99.90
3690;DHT22;1861;50.240;8.596;2023-03-15T07:21:19;5.90;99.90
3690;DHT22;1861;50.240;8.596;2023-03-15T07:23:48;5.90;99.90
3690;DHT22;1861;50.240;8.596;2023-03-15T07:26:16;5.90;99.90
3690;DHT22;1861;50.240;8.596;2023-03-15T07:28:44;5.80;99.90
3690;DHT22;1861;50.240;8.596;2023-03-15T07:31:13;5.70;99.90
3690;DHT22;1861;50.240;8.596;2023-03-15T07:33:41;5.90;99.90
3690;DHT22;1861;50.240;8.596;2023-03-15T07:36:09;5.80;99.90
3690;DHT22;1861;50.240;8.596;2023-03-15T07:38:37;5.90;99.90
3690;DHT22;1861;50.240;8.596;2023-03-15T07:41:10;6.00;99.90
3690;DHT22;1861;50.240;8.596;2023-03-15T07:43:47;6.10;99.90
3690;DHT22;1861;50.240;8.596;2023-03-15T07:46:17;6.20;99.90
3690;DHT22;1861;50.240;8.596;2023-03-15T07:48:45;6.20;99.90
3690;DHT22;1861;50.240;8.596;2023-03-15T07:51:13;6.20;99.90
3690;DHT22;1861;50.240;8.596;2023-03-15T07:53:41;6.20;99.90
3690;DHT22;1861;50.240;8.596;2023-03-15T07:56:10;6.20;99.90
3690;DHT22;1861;50.240;8.596;2023-03-15T07:58:39;6.20;99.90
3690;DHT22;1861;50.240;8.596;2023-03-15T08:01:07;6.20;99.90
3690;DHT22;1861;50.240;8.596;2023-03-15T08:03:36;6.20;99.90
3690;DHT22;1861;50.240;8.596;2023-03-15T08:06:05;6.20;99.90
3690;DHT22;1861;50.240;8.596;2023-03-15T08:08:33;6.20;99.90
3690;DHT22;1861;50.240;8.596;2023-03-15T08:11:01;6.20;99.90
3690;DHT22;1861;50.240;8.596;2023-03-15T08:13:32;6.20;99.90
3690;DHT22;1861;50.240;8.596;2023-03-15T08:16:00;6.20;99.90
3690;DHT22;1861;50.240;8.596;2023-03-15T08:18:29;6.10;99.90
3690;DHT22;1861;50.240;8.596;2023-03-15T08:20:57;6.20;99.90
3690;DHT22;1861;50.240;8.596;2023-03-15T08:23:25;6.20;99.90
3690;DHT22;1861;50.240;8.596;2023-03-15T08:25:53;6.20;99.90
3690;DHT22;1861;50.240;8.596;2023-03-15T08:28:21;6.10;99.90
3690;DHT22;1861;50.240;8.596;2023-03-15T08:30:50;6.00;99.90
3690;DHT22;1861;50.240;8.596;2023-03-15T08:33:18;6.10;99.90
3690;DHT22;1861;50.240;8.596;2023-03-15T08:35:51;6.20;99.90
3690;DHT22;1861;50.240;8.596;2023-03-15T08:38:19;6.30;99.90
3690;DHT22;1861;50.240;8.596;2023-03-15T08:40:47;6.30;99.90
3690;DHT22;1861;50.240;8.596;2023-03-15T08:43:15;6.30;99.90
3690;DHT22;1861;50.240;8.596;2023-03-15T08:45:44;6.30;99.90
3690;DHT22;1861;50.240;8.596;2023-03-15T08:48:28;6.30;99.90
3690;DHT22;1861;50.240;8.596;2023-03-15T08:51:01;6.40;99.90
3690;DHT22;1861;50.240;8.596;2023-03-15T08:53:30;6.60;99.90
3690;DHT22;1861;50.240;8.596;2023-03-15T08:55:58;6.60;99.90
3690;DHT22;1861;50.240;8.596;2023-03-15T08:58:26;6.60;99.90
3690;DHT22;1861;50.240;8.596;2023-03-15T09:00:54;6.60;99.90
3690;DHT22;1861;50.240;8.596;2023-03-15T09:03:23;6.70;99.90
3690;DHT22;1861;50.240;8.596;2023-03-15T09:05:56;6.70;99.90
3690;DHT22;1861;50.240;8.596;2023-03-15T09:08:25;6.70;99.90
3690;DHT22;1861;50.240;8.596;2023-03-15T09:10:53;6.70;99.90
3690;DHT22;1861;50.240;8.596;2023-03-15T09:13:22;6.70;99.90
3690;DHT22;1861;50.240;8.596;2023-03-15T09:15:51;6.70;99.90
3690;DHT22;1861;50.240;8.596;2023-03-15T09:18:20;6.80;99.90
3690;DHT22;1861;50.240;8.596;2023-03-15T09:20:49;6.80;99.90
3690;DHT22;1861;50.240;8.596;2023-03-15T09:23:18;6.70;99.90
3690;DHT22;1861;50.240;8.596;2023-03-15T09:25:46;6.80;99.90
3690;DHT22;1861;50.240;8.596;2023-03-15T09:28:14;6.80;99.90
3690;DHT22;1861;50.240;8.596;2023-03-15T09:30:42;6.80;99.90
3690;DHT22;1861;50.240;8.596;2023-03-15T09:33:10;6.80;99.90
3690;DHT22;1861;50.240;8.596;2023-03-15T09:35:40;6.80;99.90
3690;DHT22;1861;50.240;8.596;2023-03-15T09:38:09;6.90;99.90
3690;DHT22;1861;50.240;8.596;2023-03-15T09:40:41;6.90;99.90
3690;DHT22;1861;50.240;8.596;2023-03-15T09:43:43;6.90;99.90
3690;DHT22;1861;50.240;8.596;2023-03-15T09:46:25;6.80;99.90
3690;DHT22;1861;50.240;8.596;2023-03-15T09:49:00;6.90;99.90
3690;DHT22;1861;50.240;8.596;2023-03-15T09:51:35;6.90;99.90
3690;DHT22;1861;50.240;8.596;2023-03-15T09:54:10;6.90;99.90
3690;DHT22;1861;50.240;8.596;2023-03-15T09:56:44;6.80;99.90
3690;DHT22;1861;50.240;8.596;2023-03-15T09:59:14;6.80;99.90
3690;DHT22;1861;50.240;8.596;2023-03-15T10:01:50;6.90;99.90
3690;DHT22;1861;50.240;8.596;2023-03-15T10:04:25;6.90;99.90
3690;DHT22;1861;50.240;8.596;2023-03-15T10:06:55;7.00;99.90
3690;DHT22;1861;50.240;8.596;2023-03-15T10:09:27;7.00;99.90
3690;DHT22;1861;50.240;8.596;2023-03-15T10:12:04;7.00;99.90
3690;DHT22;1861;50.240;8.596;2023-03-15T10:14:45;7.00;99.90
3690;DHT22;1861;50.240;8.596;2023-03-15T10:17:20;7.10;99.90
3690;DHT22;1861;50.240;8.596;2023-03-15T10:19:56;7.00;99.90
3690;DHT22;1861;50.240;8.596;2023-03-15T10:22:29;7.10;99.90
3690;DHT22;1861;50.240;8.596;2023-03-15T10:25:04;7.10;99.90
3690;DHT22;1861;50.240;8.596;2023-03-15T10:27:41;7.10;99.90
3690;DHT22;1861;50.240;8.596;2023-03-15T10:30:15;7.20;99.90
3690;DHT22;1861;50.240;8.596;2023-03-15T10:32:45;7.30;99.90
3690;DHT22;1861;50.240;8.596;2023-03-15T10:35:17;7.30;99.90
3690;DHT22;1861;50.240;8.596;2023-03-15T10:37:45;7.50;99.90
3690;DHT22;1861;50.240;8.596;2023-03-15T10:40:14;7.60;99.90
3690;DHT22;1861;50.240;8.596;2023-03-15T10:42:45;7.70;99.90
3690;DHT22;1861;50.240;8.596;2023-03-15T10:45:19;7.70;99.90
3690;DHT22;1861;50.240;8.596;2023-03-15T10:47:48;7.80;99.90
3690;DHT22;1861;50.240;8.596;2023-03-15T10:50:27;7.60;99.90
3690;DHT22;1861;50.240;8.596;2023-03-15T10:52:57;7.60;99.90
3690;DHT22;1861;50.240;8.596;2023-03-15T10:55:30;7.90;99.90
3690;DHT22;1861;50.240;8.596;2023-03-15T10:58:16;8.10;99.90
3690;DHT22;1861;50.240;8.596;2023-03-15T11:00:49;8.10;99.90
3690;DHT22;1861;50.240;8.596;2023-03-15T11:03:19;8.10;99.90
3690;DHT22;1861;50.240;8.596;2023-03-15T11:05:49;8.20;99.90
3690;DHT22;1861;50.240;8.596;2023-03-15T11:08:19;8.40;99.90
3690;DHT22;1861;50.240;8.596;2023-03-15T11:10:55;8.40;99.90
3690;DHT22;1861;50.240;8.596;2023-03-15T11:13:26;8.20;99.90
3690;DHT22;1861;50.240;8.596;2023-03-15T11:15:59;8.20;99.90
3690;DHT22;1861;50.240;8.596;2023-03-15T11:18:34;8.20;99.90
3690;DHT22;1861;50.240;8.596;2023-03-15T11:21:06;8.10;99.90
3690;DHT22;1861;50.240;8.596;2023-03-15T11:23:37;8.00;99.90
3690;DHT22;1861;50.240;8.596;2023-03-15T11:26:14;8.00;99.90
3690;DHT22;1861;50.240;8.596;2023-03-15T11:29:03;8.00;99.90
3690;DHT22;1861;50.240;8.596;2023-03-15T11:31:33;8.00;99.90
3690;DHT22;1861;50.240;8.596;2023-03-15T11:34:05;7.90;99.90
3690;DHT22;1861;50.240;8.596;2023-03-15T11:36:38;8.00;99.90
3690;DHT22;1861;50.240;8.596;2023-03-15T11:39:12;7.90;99.90
3690;DHT22;1861;50.240;8.596;2023-03-15T11:41:44;8.00;99.90
3690;DHT22;1861;50.240;8.596;2023-03-15T11:44:24;8.10;99.90
3690;DHT22;1861;50.240;8.596;2023-03-15T11:46:58;8.10;99.90
3690;DHT22;1861;50.240;8.596;2023-03-15T11:49:34;8.10;99.90
3690;DHT22;1861;50.240;8.596;2023-03-15T11:52:04;8.10;99.90
3690;DHT22;1861;50.240;8.596;2023-03-15T11:54:32;8.20;99.90
3690;DHT22;1861;50.240;8.596;2023-03-15T11:57:01;8.10;99.90
3690;DHT22;1861;50.240;8.596;2023-03-15T11:59:32;8.10;99.90
3690;DHT22;1861;50.240;8.596;2023-03-15T12:02:41;8.00;99.90
3690;DHT22;1861;50.240;8.596;2023-03-15T12:05:40;8.00;99.90
3690;DHT22;1861;50.240;8.596;2023-03-15T12:08:21;8.10;99.90
3690;DHT22;1861;50.240;8.596;2023-03-15T12:10:52;8.20;99.90
3690;DHT22;1861;50.240;8.596;2023-03-15T12:13:26;8.20;99.90
3690;DHT22;1861;50.240;8.596;2023-03-15T12:15:54;8.30;99.90
3690;DHT22;1861;50.240;8.596;2023-03-15T12:18:31;8.20;99.90
3690;DHT22;1861;50.240;8.596;2023-03-15T12:21:14;8.30;99.90
3690;DHT22;1861;50.240;8.596;2023-03-15T12:23:46;8.20;99.90
3690;DHT22;1861;50.240;8.596;2023-03-15T12:26:24;8.20;99.90
3690;DHT22;1861;50.240;8.596;2023-03-15T12:29:04;8.20;99.90
3690;DHT22;1861;50.240;8.596;2023-03-15T12:31:43;8.20;99.90
3690;DHT22;1861;50.240;8.596;2023-03-15T12:34:22;8.40;99.90
3690;DHT22;1861;50.240;8.596;2023-03-15T12:36:54;8.50;99.90
3690;DHT22;1861;50.240;8.596;2023-03-15T12:39:38;8.70;99.90
3690;DHT22;1861;50.240;8.596;2023-03-15T12:42:12;8.60;99.90
3690;DHT22;1861;50.240;8.596;2023-03-15T12:44:41;8.50;99.90
3690;DHT22;1861;50.240;8.596;2023-03-15T12:47:10;8.30;99.90
3690;DHT22;1861;50.240;8.596;2023-03-15T12:49:41;8.40;99.90
3690;DHT22;1861;50.240;8.596;2023-03-15T12:52:27;8.50;99.90
3690;DHT22;1861;50.240;8.596;2023-03-15T12:55:04;8.60;99.90
3690;DHT22;1861;50.240;8.596;2023-03-15T12:57:44;8.60;99.90
3690;DHT22;1861;50.240;8.596;2023-03-15T13:00:15;8.70;99.90
3690;DHT22;1861;50.240;8.596;2023-03-15T13:02:45;8.70;99.90
3690;DHT22;1861;50.240;8.596;2023-03-15T13:05:19;8.90;99.90
3690;DHT22;1861;50.240;8.596;2023-03-15T13:07:57;9.00;99.90
3690;DHT22;1861;50.240;8.596;2023-03-15T13:10:37;9.00;99.90
3690;DHT22;1861;50.240;8.596;2023-03-15T13:13:34;9.10;99.90
3690;DHT22;1861;50.240;8.596;2023-03-15T13:16:15;9.10;99.90
3690;DHT22;1861;50.240;8.596;2023-03-15T13:18:51;9.00;99.90
3690;DHT22;1861;50.240;8.596;2023-03-15T13:21:27;8.80;99.90
3690;DHT22;1861;50.240;8.596;2023-03-15T13:23:58;8.60;99.90
3690;DHT22;1861;50.240;8.596;2023-03-15T13:26:37;8.50;99.90
3690;DHT22;1861;50.240;8.596;2023-03-15T13:29:10;8.40;99.90
3690;DHT22;1861;50.240;8.596;2023-03-15T13:31:40;8.30;99.90
3690;DHT22;1861;50.240;8.596;2023-03-15T13:34:12;8.30;99.90
3690;DHT22;1861;50.240;8.596;2023-03-15T13:36:44;8.30;99.90
3690;DHT22;1861;50.240;8.596;2023-03-15T13:39:17;8.30;99.90
3690;DHT22;1861;50.240;8.596;2023-03-15T13:41:46;8.40;99.90
3690;DHT22;1861;50.240;8.596;2023-03-15T13:44:17;8.40;99.90
3690;DHT22;1861;50.240;8.596;2023-03-15T13:46:46;8.40;99.90
3690;DHT22;1861;50.240;8.596;2023-03-15T13:49:15;8.50;99.90
3690;DHT22;1861;50.240;8.596;2023-03-15T13:51:46;8.50;99.90
3690;DHT22;1861;50.240;8.596;2023-03-15T13:54:16;8.50;99.90
3690;DHT22;1861;50.240;8.596;2023-03-15T13:56:54;8.50;99.90
3690;DHT22;1861;50.240;8.596;2023-03-15T13:59:26;8.50;99.90
3690;DHT22;1861;50.240;8.596;2023-03-15T14:01:59;8.60;99.90
3690;DHT22;1861;50.240;8.596;2023-03-15T14:04:31;8.70;99.90
3690;DHT22;1861;50.240;8.596;2023-03-15T14:07:14;8.80;99.90
3690;DHT22;1861;50.240;8.596;2023-03-15T14:09:47;8.90;99.90
3690;DHT22;1861;50.240;8.596;2023-03-15T14:12:17;8.90;99.50
3690;DHT22;1861;50.240;8.596;2023-03-15T14:14:51;9.00;99.90
3690;DHT22;1861;50.240;8.596;2023-03-15T14:17:24;9.10;99.90
3690;DHT22;1861;50.240;8.596;2023-03-15T14:19:54;9.20;99.90
3690;DHT22;1861;50.240;8.596;2023-03-15T14:22:25;9.30;99.90
3690;DHT22;1861;50.240;8.596;2023-03-15T14:24:53;9.30;99.90
3690;DHT22;1861;50.240;8.596;2023-03-15T14:27:24;9.40;99.90
3690;DHT22;1861;50.240;8.596;2023-03-15T14:29:56;9.40;99.90
3690;DHT22;1861;50.240;8.596;2023-03-15T14:32:27;9.40;99.90
3690;DHT22;1861;50.240;8.596;2023-03-15T14:34:59;9.40;99.80
3690;DHT22;1861;50.240;8.596;2023-03-15T14:37:35;9.40;99.90
3690;DHT22;1861;50.240;8.596;2023-03-15T14:40:16;9.40;99.80
3690;DHT22;1861;50.240;8.596;2023-03-15T14:42:47;9.40;99.50
3690;DHT22;1861;50.240;8.596;2023-03-15T14:45:16;9.40;99.20
3690;DHT22;1861;50.240;8.596;2023-03-15T14:47:47;9.40;99.90
3690;DHT22;1861;50.240;8.596;2023-03-15T14:50:24;9.30;98.90
3690;DHT22;1861;50.240;8.596;2023-03-15T14:52:55;9.30;98.70
3690;DHT22;1861;50.240;8.596;2023-03-15T14:55:28;9.30;99.10
3690;DHT22;1861;50.240;8.596;2023-03-15T14:57:56;9.30;98.70
3690;DHT22;1861;50.240;8.596;2023-03-15T15:00:25;9.40;98.90
3690;DHT22;1861;50.240;8.596;2023-03-15T15:02:54;9.30;98.60
3690;DHT22;1861;50.240;8.596;2023-03-15T15:05:31;9.30;98.90
3690;DHT22;1861;50.240;8.596;2023-03-15T15:08:04;9.30;98.60
3690;DHT22;1861;50.240;8.596;2023-03-15T15:10:33;9.30;98.90
3690;DHT22;1861;50.240;8.596;2023-03-15T15:13:01;9.30;98.50
3690;DHT22;1861;50.240;8.596;2023-03-15T15:15:33;9.40;98.80
3690;DHT22;1861;50.240;8.596;2023-03-15T15:18:21;9.40;98.40
3690;DHT22;1861;50.240;8.596;2023-03-15T15:20:50;9.30;97.90
3690;DHT22;1861;50.240;8.596;2023-03-15T15:23:24;9.40;98.40
3690;DHT22;1861;50.240;8.596;2023-03-15T15:25:56;9.40;97.70
3690;DHT22;1861;50.240;8.596;2023-03-15T15:28:25;9.30;97.80
3690;DHT22;1861;50.240;8.596;2023-03-15T15:31:04;9.30;97.70
3690;DHT22;1861;50.240;8.596;2023-03-15T15:33:32;9.30;97.20
3690;DHT22;1861;50.240;8.596;2023-03-15T15:36:01;9.30;97.40
3690;DHT22;1861;50.240;8.596;2023-03-15T15:38:32;9.10;96.90
3690;DHT22;1861;50.240;8.596;2023-03-15T15:41:08;9.20;97.00
3690;DHT22;1861;50.240;8.596;2023-03-15T15:43:38;9.30;97.30
3690;DHT22;1861;50.240;8.596;2023-03-15T15:46:09;9.30;96.70
3690;DHT22;1861;50.240;8.596;2023-03-15T15:48:38;9.30;97.00
3690;DHT22;1861;50.240;8.596;2023-03-15T15:51:23;9.30;96.60
3690;DHT22;1861;50.240;8.596;2023-03-15T15:53:54;9.30;97.40
3690;DHT22;1861;50.240;8.596;2023-03-15T15:56:29;9.30;96.60
3690;DHT22;1861;50.240;8.596;2023-03-15T15:58:59;9.30;96.60
3690;DHT22;1861;50.240;8.596;2023-03-15T16:01:29;9.30;96.50
3690;DHT22;1861;50.240;8.596;2023-03-15T16:03:57;9.30;96.20
3690;DHT22;1861;50.240;8.596;2023-03-15T16:06:25;9.30;96.10
3690;DHT22;1861;50.240;8.596;2023-03-15T16:08:55;9.30;96.30
3690;DHT22;1861;50.240;8.596;2023-03-15T16:11:23;9.40;96.30
3690;DHT22;1861;50.240;8.596;2023-03-15T16:13:52;9.20;96.20
3690;DHT22;1861;50.240;8.596;2023-03-15T16:16:20;9.20;96.00
3690;DHT22;1861;50.240;8.596;2023-03-15T16:18:48;9.20;96.10
3690;DHT22;1861;50.240;8.596;2023-03-15T16:21:22;9.10;95.90
3690;DHT22;1861;50.240;8.596;2023-03-15T16:23:56;9.10;96.40
3690;DHT22;1861;50.240;8.596;2023-03-15T16:26:26;9.00;96.20
3690;DHT22;1861;50.240;8.596;2023-03-15T16:28:54;9.00;96.00
3690;DHT22;1861;50.240;8.596;2023-03-15T16:31:22;9.00;95.90
3690;DHT22;1861;50.240;8.596;2023-03-15T16:33:50;8.90;95.70
3690;DHT22;1861;50.240;8.596;2023-03-15T16:36:20;9.00;96.20
3690;DHT22;1861;50.240;8.596;2023-03-15T16:38:49;8.90;95.70
3690;DHT22;1861;50.240;8.596;2023-03-15T16:41:18;8.80;95.90
3690;DHT22;1861;50.240;8.596;2023-03-15T16:43:46;8.80;95.90
3690;DHT22;1861;50.240;8.596;2023-03-15T16:46:15;8.80;96.10
3690;DHT22;1861;50.240;8.596;2023-03-15T16:48:44;8.70;96.30
3690;DHT22;1861;50.240;8.596;2023-03-15T16:51:13;8.70;96.10
3690;DHT22;1861;50.240;8.596;2023-03-15T16:53:42;8.60;96.30
3690;DHT22;1861;50.240;8.596;2023-03-15T16:56:12;8.50;96.40